sensor_id;sensor_type;location;lat;lon;timestamp;pressure;altitude;pressure_sealevel;temperature;humidity
18678;BME280;9469;51.114;13.914;2023-10-31T00:02:55;96806.06;;;14.38;100.00
18678;BME280;9469;51.114;13.914;2023-10-31T00:08:01;96782.16;;;14.15;100.00
18678;BME280;9469;51.114;13.914;2023-10-31T00:13:06;96762.53;;;14.00;100.00
18678;BME280;9469;51.114;13.914;2023-10-31T00:18:14;96767.88;;;13.97;100.00
18678;BME280;9469;51.114;13.914;2023-10-31T00:23:22;96759.91;;;14.04;100.00
18678;BME280;9469;51.114;13.914;2023-10-31T00:28:31;96779.34;;;14.01;100.00
18678;BME280;9469;51.114;13.914;2023-10-31T00:33:39;96788.69;;;14.21;100.00
18678;BME280;9469;51.114;13.914;2023-10-31T00:38:44;96794.75;;;14.14;100.00
18678;BME280;9469;51.114;13.914;2023-10-31T00:43:52;96803.22;;;14.20;100.00
18678;BME280;9469;51.114;13.914;2023-10-31T00:49:00;96796.53;;;14.40;100.00
18678;BME280;9469;51.114;13.914;2023-10-31T00:54:05;96799.31;;;14.54;100.00
18678;BME280;9469;51.114;13.914;2023-10-31T00:59:11;96782.50;;;14.54;100.00
18678;BME280;9469;51.114;13.914;2023-10-31T01:04:21;96780.69;;;14.68;100.00
18678;BME280;9469;51.114;13.914;2023-10-31T01:09:27;96759.44;;;14.38;100.00
18678;BME280;9469;51.114;13.914;2023-10-31T01:14:32;96756.38;;;14.33;100.00
18678;BME280;9469;51.114;13.914;2023-10-31T01:19:43;96737.09;;;14.13;100.00
18678;BME280;9469;51.114;13.914;2023-10-31T01:24:52;96741.34;;;14.21;100.00
18678;BME280;9469;51.114;13.914;2023-10-31T01:29:57;96736.38;;;14.23;100.00
18678;BME280;9469;51.114;13.914;2023-10-31T01:35:07;96716.38;;;14.07;100.00
18678;BME280;9469;51.114;13.914;2023-10-31T01:40:13;96710.59;;;13.98;100.00
18678;BME280;9469;51.114;13.914;2023-10-31T01:45:24;96711.28;;;14.35;100.00
18678;BME280;9469;51.114;13.914;2023-10-31T01:50:35;96686.50;;;14.38;100.00
18678;BME280;9469;51.114;13.914;2023-10-31T01:55:42;96698.97;;;14.27;100.00
18678;BME280;9469;51.114;13.914;2023-10-31T02:00:48;96701.63;;;14.23;100.00
18678;BME280;9469;51.114;13.914;2023-10-31T02:05:58;96691.94;;;14.05;100.00
18678;BME280;9469;51.114;13.914;2023-10-31T02:11:06;96703.28;;;14.35;100.00
18678;BME280;9469;51.114;13.914;2023-10-31T02:16:15;96705.56;;;14.33;100.00
18678;BME280;9469;51.114;13.914;2023-10-31T02:21:25;96721.53;;;14.26;100.00
18678;BME280;9469;51.114;13.914;2023-10-31T02:26:35;96727.72;;;14.33;100.00
18678;BME280;9469;51.114;13.914;2023-10-31T02:31:40;96722.00;;;14.35;100.00
18678;BME280;9469;51.114;13.914;2023-10-31T02:36:45;96727.72;;;14.33;100.00
18678;BME280;9469;51.114;13.914;2023-10-31T02:41:54;96715.09;;;14.34;100.00
18678;BME280;9469;51.114;13.914;2023-10-31T02:47:00;96733.03;;;14.30;100.00
18678;BME280;9469;51.114;13.914;2023-10-31T02:52:05;96750.81;;;14.12;100.00
18678;BME280;9469;51.114;13.914;2023-10-31T02:57:13;96762.25;;;14.09;100.00
18678;BME280;9469;51.114;13.914;2023-10-31T03:02:19;96764.47;;;14.00;100.00
18678;BME280;9469;51.114;13.914;2023-10-31T03:07:24;96767.16;;;14.03;100.00
18678;BME280;9469;51.114;13.914;2023-10-31T03:12:32;96765.84;;;13.87;100.00
18678;BME280;9469;51.114;13.914;2023-10-31T03:17:38;96763.47;;;13.78;100.00
18678;BME280;9469;51.114;13.914;2023-10-31T03:22:47;96753.97;;;13.81;100.00
18678;BME280;9469;51.114;13.914;2023-10-31T03:27:55;96752.69;;;13.68;100.00
18678;BME280;9469;51.114;13.914;2023-10-31T03:33:00;96743.88;;;13.63;100.00
18678;BME280;9469;51.114;13.914;2023-10-31T03:38:05;96733.56;;;13.62;100.00
18678;BME280;9469;51.114;13.914;2023-10-31T03:43:13;96728.09;;;13.51;100.00
18678;BME280;9469;51.114;13.914;2023-10-31T03:48:18;96734.06;;;13.38;100.00
18678;BME280;9469;51.114;13.914;2023-10-31T03:53:23;96734.75;;;13.31;100.00
18678;BME280;9469;51.114;13.914;2023-10-31T03:58:34;96742.78;;;13.31;100.00
18678;BME280;9469;51.114;13.914;2023-10-31T04:03:39;96738.94;;;13.29;100.00
18678;BME280;9469;51.114;13.914;2023-10-31T04:08:44;96736.13;;;13.18;100.00
18678;BME280;9469;51.114;13.914;2023-10-31T04:13:52;96735.38;;;13.18;100.00
18678;BME280;9469;51.114;13.914;2023-10-31T04:18:57;96733.31;;;13.08;100.00
18678;BME280;9469;51.114;13.914;2023-10-31T04:24:03;96747.47;;;13.12;100.00
18678;BME280;9469;51.114;13.914;2023-10-31T04:29:11;96753.69;;;13.19;100.00
18678;BME280;9469;51.114;13.914;2023-10-31T04:34:18;96751.94;;;13.04;100.00
18678;BME280;9469;51.114;13.914;2023-10-31T04:39:24;96778.75;;;13.11;100.00
18678;BME280;9469;51.114;13.914;2023-10-31T04:44:35;96783.88;;;12.97;100.00
18678;BME280;9469;51.114;13.914;2023-10-31T04:49:42;96797.78;;;13.10;100.00
18678;BME280;9469;51.114;13.914;2023-10-31T04:54:47;96798.88;;;13.05;100.00
18678;BME280;9469;51.114;13.914;2023-10-31T04:59:55;96786.72;;;13.08;100.00
18678;BME280;9469;51.114;13.914;2023-10-31T05:05:01;96796.19;;;13.05;100.00
18678;BME280;9469;51.114;13.914;2023-10-31T05:10:08;96799.34;;;13.11;100.00
18678;BME280;9469;51.114;13.914;2023-10-31T05:15:16;96781.50;;;12.92;100.00
18678;BME280;9469;51.114;13.914;2023-10-31T05:20:21;96797.09;;;13.16;100.00
18678;BME280;9469;51.114;13.914;2023-10-31T05:25:26;96800.31;;;13.03;100.00
18678;BME280;9469;51.114;13.914;2023-10-31T05:30:34;96805.75;;;13.06;100.00
18678;BME280;9469;51.114;13.914;2023-10-31T05:35:40;96808.28;;;12.99;100.00
18678;BME280;9469;51.114;13.914;2023-10-31T05:40:47;96829.78;;;13.06;100.00
18678;BME280;9469;51.114;13.914;2023-10-31T05:45:56;96841.09;;;13.00;100.00
18678;BME280;9469;51.114;13.914;2023-10-31T05:51:01;96851.81;;;13.03;100.00
18678;BME280;9469;51.114;13.914;2023-10-31T05:56:09;96847.75;;;13.09;100.00
18678;BME280;9469;51.114;13.914;2023-10-31T06:01:17;96851.16;;;13.10;100.00
18678;BME280;9469;51.114;13.914;2023-10-31T06:06:22;96864.03;;;13.04;100.00
18678;BME280;9469;51.114;13.914;2023-10-31T06:11:27;96882.72;;;13.04;100.00
18678;BME280;9469;51.114;13.914;2023-10-31T06:16:42;96883.25;;;13.13;100.00
18678;BME280;9469;51.114;13.914;2023-10-31T06:21:48;96904.97;;;13.12;100.00
18678;BME280;9469;51.114;13.914;2023-10-31T06:26:53;96924.16;;;12.98;100.00
18678;BME280;9469;51.114;13.914;2023-10-31T06:32:02;96932.25;;;13.02;100.00
18678;BME280;9469;51.114;13.914;2023-10-31T06:37:08;96940.75;;;12.84;100.00
18678;BME280;9469;51.114;13.914;2023-10-31T06:42:15;96958.97;;;12.82;100.00
18678;BME280;9469;51.114;13.914;2023-10-31T06:47:24;96952.78;;;12.75;100.00
18678;BME280;9469;51.114;13.914;2023-10-31T06:52:30;96978.84;;;12.85;100.00
18678;BME280;9469;51.114;13.914;2023-10-31T06:57:35;96976.50;;;12.80;100.00
18678;BME280;9469;51.114;13.914;2023-10-31T07:02:45;96977.97;;;12.77;100.00
18678;BME280;9469;51.114;13.914;2023-10-31T07:07:51;96979.63;;;12.63;100.00
18678;BME280;9469;51.114;13.914;2023-10-31T07:12:59;96966.69;;;12.65;100.00
18678;BME280;9469;51.114;13.914;2023-10-31T07:18:07;96982.41;;;12.70;100.00
18678;BME280;9469;51.114;13.914;2023-10-31T07:23:13;96991.19;;;12.70;100.00
18678;BME280;9469;51.114;13.914;2023-10-31T07:28:18;97003.81;;;12.73;100.00
18678;BME280;9469;51.114;13.914;2023-10-31T07:33:27;97020.84;;;12.88;100.00
18678;BME280;9469;51.114;13.914;2023-10-31T07:38:34;97032.41;;;12.73;100.00
18678;BME280;9469;51.114;13.914;2023-10-31T07:43:39;97043.53;;;12.78;100.00
18678;BME280;9469;51.114;13.914;2023-10-31T07:48:48;97051.91;;;12.77;100.00
18678;BME280;9469;51.114;13.914;2023-10-31T07:53:53;97062.63;;;12.80;100.00
18678;BME280;9469;51.114;13.914;2023-10-31T07:59:00;97058.06;;;12.81;100.00
18678;BME280;9469;51.114;13.914;2023-10-31T08:04:08;97062.44;;;12.89;100.00
18678;BME280;9469;51.114;13.914;2023-10-31T08:09:13;97070.84;;;12.91;100.00
18678;BME280;9469;51.114;13.914;2023-10-31T08:14:19;97071.66;;;12.95;100.00
18678;BME280;9469;51.114;13.914;2023-10-31T08:19:32;97060.31;;;12.79;100.00
18678;BME280;9469;51.114;13.914;2023-10-31T08:24:37;97084.75;;;12.81;100.00
18678;BME280;9469;51.114;13.914;2023-10-31T08:29:42;97076.59;;;12.74;100.00
18678;BME280;9469;51.114;13.914;2023-10-31T08:34:51;97084.19;;;12.91;100.00
18678;BME280;9469;51.114;13.914;2023-10-31T08:39:56;97086.25;;;13.20;100.00
18678;BME280;9469;51.114;13.914;2023-10-31T08:45:08;97097.78;;;13.73;100.00
18678;BME280;9469;51.114;13.914;2023-10-31T08:50:17;97113.50;;;13.29;100.00
18678;BME280;9469;51.114;13.914;2023-10-31T08:55:23;97108.97;;;13.56;100.00
18678;BME280;9469;51.114;13.914;2023-10-31T09:00:28;97115.22;;;13.90;100.00
18678;BME280;9469;51.114;13.914;2023-10-31T09:05:37;97117.03;;;16.32;93.19
18678;BME280;9469;51.114;13.914;2023-10-31T09:10:44;97123.25;;;17.61;84.34
18678;BME280;9469;51.114;13.914;2023-10-31T09:15:53;97146.16;;;17.09;85.31
18678;BME280;9469;51.114;13.914;2023-10-31T09:21:07;97128.41;;;16.87;82.83
18678;BME280;9469;51.114;13.914;2023-10-31T09:26:13;97115.13;;;17.37;80.29
18678;BME280;9469;51.114;13.914;2023-10-31T09:31:20;97137.34;;;18.64;74.52
18678;BME280;9469;51.114;13.914;2023-10-31T09:36:31;97151.56;;;17.27;79.07
18678;BME280;9469;51.114;13.914;2023-10-31T09:41:37;97153.91;;;18.55;77.03
18678;BME280;9469;51.114;13.914;2023-10-31T09:46:47;97157.72;;;17.28;80.08
18678;BME280;9469;51.114;13.914;2023-10-31T09:51:54;97188.25;;;16.81;83.60
18678;BME280;9469;51.114;13.914;2023-10-31T09:57:01;97210.81;;;15.71;88.56
18678;BME280;9469;51.114;13.914;2023-10-31T10:02:07;97207.19;;;15.97;89.52
18678;BME280;9469;51.114;13.914;2023-10-31T10:07:16;97213.09;;;15.36;94.16
18678;BME280;9469;51.114;13.914;2023-10-31T10:12:26;97196.44;;;15.16;93.68
18678;BME280;9469;51.114;13.914;2023-10-31T10:17:32;97207.19;;;15.93;88.21
18678;BME280;9469;51.114;13.914;2023-10-31T10:22:42;97213.56;;;16.83;83.77
18678;BME280;9469;51.114;13.914;2023-10-31T10:27:47;97226.09;;;16.58;83.81
18678;BME280;9469;51.114;13.914;2023-10-31T10:32:53;97233.59;;;15.91;86.30
18678;BME280;9469;51.114;13.914;2023-10-31T10:38:04;97206.53;;;16.10;84.19
18678;BME280;9469;51.114;13.914;2023-10-31T10:43:20;97224.63;;;15.73;85.85
18678;BME280;9469;51.114;13.914;2023-10-31T10:48:26;97212.00;;;15.77;87.40
18678;BME280;9469;51.114;13.914;2023-10-31T10:53:38;97209.53;;;15.98;85.75
18678;BME280;9469;51.114;13.914;2023-10-31T10:58:55;97190.50;;;15.70;86.61
18678;BME280;9469;51.114;13.914;2023-10-31T11:04:00;97184.84;;;15.08;89.00
18678;BME280;9469;51.114;13.914;2023-10-31T11:09:09;97202.31;;;14.95;89.94
18678;BME280;9469;51.114;13.914;2023-10-31T11:14:16;97202.78;;;15.04;91.13
18678;BME280;9469;51.114;13.914;2023-10-31T11:19:23;97209.78;;;15.13;90.16
18678;BME280;9469;51.114;13.914;2023-10-31T11:24:37;97225.41;;;14.77;92.56
18678;BME280;9469;51.114;13.914;2023-10-31T11:29:47;97227.53;;;14.65;92.58
18678;BME280;9469;51.114;13.914;2023-10-31T11:34:52;97242.03;;;14.64;92.08
18678;BME280;9469;51.114;13.914;2023-10-31T11:40:20;97215.06;;;15.05;89.26
18678;BME280;9469;51.114;13.914;2023-10-31T11:45:29;97210.72;;;14.68;86.67
18678;BME280;9469;51.114;13.914;2023-10-31T11:50:37;97229.97;;;14.77;87.57
18678;BME280;9469;51.114;13.914;2023-10-31T11:55:48;97222.38;;;14.53;87.51
18678;BME280;9469;51.114;13.914;2023-10-31T12:01:02;97231.78;;;14.20;88.96
18678;BME280;9469;51.114;13.914;2023-10-31T12:06:09;97242.72;;;14.57;88.17
18678;BME280;9469;51.114;13.914;2023-10-31T12:11:20;97265.34;;;14.37;88.58
18678;BME280;9469;51.114;13.914;2023-10-31T12:16:27;97296.84;;;14.47;87.53
18678;BME280;9469;51.114;13.914;2023-10-31T12:21:37;97305.28;;;14.49;88.97
18678;BME280;9469;51.114;13.914;2023-10-31T12:26:45;97274.03;;;14.57;89.28
18678;BME280;9469;51.114;13.914;2023-10-31T12:31:53;97260.00;;;14.37;89.68
18678;BME280;9469;51.114;13.914;2023-10-31T12:37:00;97263.59;;;14.25;89.49
18678;BME280;9469;51.114;13.914;2023-10-31T12:42:09;97248.59;;;14.40;88.49
18678;BME280;9469;51.114;13.914;2023-10-31T12:47:21;97282.69;;;14.24;87.87
18678;BME280;9469;51.114;13.914;2023-10-31T12:52:45;97303.91;;;14.36;88.09
18678;BME280;9469;51.114;13.914;2023-10-31T12:58:18;97316.13;;;14.14;89.80
18678;BME280;9469;51.114;13.914;2023-10-31T13:03:48;97325.72;;;14.15;89.59
18678;BME280;9469;51.114;13.914;2023-10-31T13:08:55;97318.81;;;14.14;90.76
18678;BME280;9469;51.114;13.914;2023-10-31T13:14:04;97328.44;;;14.19;91.50
18678;BME280;9469;51.114;13.914;2023-10-31T13:19:12;97344.22;;;14.05;92.56
18678;BME280;9469;51.114;13.914;2023-10-31T13:24:18;97359.03;;;13.60;94.99
18678;BME280;9469;51.114;13.914;2023-10-31T13:29:26;97367.19;;;13.48;97.54
18678;BME280;9469;51.114;13.914;2023-10-31T13:34:32;97365.44;;;13.56;98.12
18678;BME280;9469;51.114;13.914;2023-10-31T13:39:38;97374.41;;;13.48;99.12
18678;BME280;9469;51.114;13.914;2023-10-31T13:44:48;97378.28;;;13.50;100.00
18678;BME280;9469;51.114;13.914;2023-10-31T13:49:55;97388.53;;;13.29;100.00
18678;BME280;9469;51.114;13.914;2023-10-31T13:55:04;97384.72;;;13.30;100.00
18678;BME280;9469;51.114;13.914;2023-10-31T14:00:13;97381.72;;;13.32;100.00
18678;BME280;9469;51.114;13.914;2023-10-31T14:05:20;97389.69;;;13.47;99.03
18678;BME280;9469;51.114;13.914;2023-10-31T14:10:26;97385.88;;;13.29;100.00
18678;BME280;9469;51.114;13.914;2023-10-31T14:15:37;97387.59;;;13.22;100.00
18678;BME280;9469;51.114;13.914;2023-10-31T14:20:44;97383.25;;;13.33;100.00
18678;BME280;9469;51.114;13.914;2023-10-31T14:25:52;97371.56;;;13.22;100.00
18678;BME280;9469;51.114;13.914;2023-10-31T14:31:00;97374.28;;;13.06;100.00
18678;BME280;9469;51.114;13.914;2023-10-31T14:36:11;97376.81;;;13.03;100.00
18678;BME280;9469;51.114;13.914;2023-10-31T14:41:16;97379.00;;;12.97;100.00
18678;BME280;9469;51.114;13.914;2023-10-31T14:46:27;97383.56;;;12.96;100.00
18678;BME280;9469;51.114;13.914;2023-10-31T14:51:33;97389.94;;;12.92;100.00
18678;BME280;9469;51.114;13.914;2023-10-31T14:56:38;97395.69;;;12.94;100.00
18678;BME280;9469;51.114;13.914;2023-10-31T15:01:47;97387.69;;;12.94;100.00
18678;BME280;9469;51.114;13.914;2023-10-31T15:06:52;97402.50;;;12.76;100.00
18678;BME280;9469;51.114;13.914;2023-10-31T15:11:57;97407.97;;;12.64;100.00
18678;BME280;9469;51.114;13.914;2023-10-31T15:17:07;97429.19;;;12.76;100.00
18678;BME280;9469;51.114;13.914;2023-10-31T15:22:12;97426.03;;;12.70;100.00
18678;BME280;9469;51.114;13.914;2023-10-31T15:27:17;97423.59;;;12.81;100.00
18678;BME280;9469;51.114;13.914;2023-10-31T15:32:27;97432.03;;;12.67;100.00
18678;BME280;9469;51.114;13.914;2023-10-31T15:37:33;97436.69;;;12.70;100.00
18678;BME280;9469;51.114;13.914;2023-10-31T15:42:43;97449.69;;;12.72;100.00
18678;BME280;9469;51.114;13.914;2023-10-31T15:47:51;97461.03;;;12.69;100.00
18678;BME280;9469;51.114;13.914;2023-10-31T15:52:57;97470.97;;;12.84;100.00
18678;BME280;9469;51.114;13.914;2023-10-31T15:58:03;97474.22;;;12.62;100.00
18678;BME280;9469;51.114;13.914;2023-10-31T16:03:12;97490.31;;;12.81;100.00
18678;BME280;9469;51.114;13.914;2023-10-31T16:08:22;97479.09;;;12.60;100.00
18678;BME280;9469;51.114;13.914;2023-10-31T16:13:28;97497.72;;;12.72;100.00
18678;BME280;9469;51.114;13.914;2023-10-31T16:18:38;97503.59;;;12.77;100.00
18678;BME280;9469;51.114;13.914;2023-10-31T16:23:45;97512.84;;;12.68;100.00
18678;BME280;9469;51.114;13.914;2023-10-31T16:28:54;97531.34;;;12.61;100.00
18678;BME280;9469;51.114;13.914;2023-10-31T16:34:08;97530.25;;;12.62;100.00
18678;BME280;9469;51.114;13.914;2023-10-31T16:39:14;97549.78;;;12.66;100.00
18678;BME280;9469;51.114;13.914;2023-10-31T16:44:31;97553.94;;;12.51;100.00
18678;BME280;9469;51.114;13.914;2023-10-31T16:49:40;97557.53;;;12.43;100.00
18678;BME280;9469;51.114;13.914;2023-10-31T16:54:48;97573.03;;;12.53;100.00
18678;BME280;9469;51.114;13.914;2023-10-31T16:59:56;97580.72;;;12.55;100.00
18678;BME280;9469;51.114;13.914;2023-10-31T17:05:09;97594.72;;;12.52;100.00
18678;BME280;9469;51.114;13.914;2023-10-31T17:10:15;97596.19;;;12.49;100.00
18678;BME280;9469;51.114;13.914;2023-10-31T17:15:26;97605.19;;;12.45;100.00
18678;BME280;9469;51.114;13.914;2023-10-31T17:20:37;97613.22;;;12.33;100.00
18678;BME280;9469;51.114;13.914;2023-10-31T17:25:43;97636.47;;;12.32;100.00
18678;BME280;9469;51.114;13.914;2023-10-31T17:30:52;97639.78;;;12.29;100.00
18678;BME280;9469;51.114;13.914;2023-10-31T17:36:00;97652.13;;;12.21;100.00
18678;BME280;9469;51.114;13.914;2023-10-31T17:41:06;97663.34;;;12.27;100.00
18678;BME280;9469;51.114;13.914;2023-10-31T17:46:11;97665.69;;;12.16;100.00
18678;BME280;9469;51.114;13.914;2023-10-31T17:51:22;97677.03;;;12.13;100.00
18678;BME280;9469;51.114;13.914;2023-10-31T17:56:27;97688.78;;;12.24;100.00
18678;BME280;9469;51.114;13.914;2023-10-31T18:01:32;97694.25;;;12.16;100.00
18678;BME280;9469;51.114;13.914;2023-10-31T18:06:40;97706.13;;;12.06;100.00
18678;BME280;9469;51.114;13.914;2023-10-31T18:11:48;97700.88;;;12.10;100.00
18678;BME280;9469;51.114;13.914;2023-10-31T18:16:55;97712.03;;;12.12;100.00
18678;BME280;9469;51.114;13.914;2023-10-31T18:22:06;97712.31;;;12.10;100.00
18678;BME280;9469;51.114;13.914;2023-10-31T18:27:11;97720.78;;;12.12;100.00
18678;BME280;9469;51.114;13.914;2023-10-31T18:32:19;97730.31;;;12.01;100.00
18678;BME280;9469;51.114;13.914;2023-10-31T18:37:28;97723.00;;;11.98;100.00
18678;BME280;9469;51.114;13.914;2023-10-31T18:42:36;97733.34;;;12.12;100.00
18678;BME280;9469;51.114;13.914;2023-10-31T18:47:43;97732.78;;;12.06;100.00
18678;BME280;9469;51.114;13.914;2023-10-31T18:52:52;97745.44;;;12.09;100.00
18678;BME280;9469;51.114;13.914;2023-10-31T18:57:58;97744.78;;;12.00;100.00
18678;BME280;9469;51.114;13.914;2023-10-31T19:03:03;97743.00;;;12.04;100.00
18678;BME280;9469;51.114;13.914;2023-10-31T19:08:11;97747.00;;;11.98;100.00
18678;BME280;9469;51.114;13.914;2023-10-31T19:13:17;97755.75;;;12.11;100.00
18678;BME280;9469;51.114;13.914;2023-10-31T19:18:23;97757.53;;;11.95;100.00
18678;BME280;9469;51.114;13.914;2023-10-31T19:23:31;97765.97;;;11.97;100.00
18678;BME280;9469;51.114;13.914;2023-10-31T19:28:37;97772.06;;;11.97;100.00
18678;BME280;9469;51.114;13.914;2023-10-31T19:33:43;97769.75;;;11.96;100.00
18678;BME280;9469;51.114;13.914;2023-10-31T19:38:53;97780.75;;;12.06;100.00
18678;BME280;9469;51.114;13.914;2023-10-31T19:44:00;97794.41;;;12.05;100.00
18678;BME280;9469;51.114;13.914;2023-10-31T19:49:09;97797.16;;;11.96;100.00
18678;BME280;9469;51.114;13.914;2023-10-31T19:54:25;97808.72;;;12.12;100.00
18678;BME280;9469;51.114;13.914;2023-10-31T19:59:31;97815.19;;;12.11;100.00
18678;BME280;9469;51.114;13.914;2023-10-31T20:04:43;97814.06;;;12.00;100.00
18678;BME280;9469;51.114;13.914;2023-10-31T20:09:52;97807.81;;;11.96;100.00
18678;BME280;9469;51.114;13.914;2023-10-31T20:15:01;97824.50;;;12.05;100.00
18678;BME280;9469;51.114;13.914;2023-10-31T20:20:10;97813.81;;;11.93;100.00
18678;BME280;9469;51.114;13.914;2023-10-31T20:25:27;97826.25;;;12.01;100.00
18678;BME280;9469;51.114;13.914;2023-10-31T20:30:36;97828.63;;;12.03;100.00
18678;BME280;9469;51.114;13.914;2023-10-31T20:35:43;97845.13;;;11.96;100.00
18678;BME280;9469;51.114;13.914;2023-10-31T20:40:54;97843.81;;;12.02;100.00
18678;BME280;9469;51.114;13.914;2023-10-31T20:45:59;97851.91;;;11.94;100.00
18678;BME280;9469;51.114;13.914;2023-10-31T20:51:06;97855.44;;;11.86;100.00
18678;BME280;9469;51.114;13.914;2023-10-31T20:56:14;97857.81;;;11.99;100.00
18678;BME280;9469;51.114;13.914;2023-10-31T21:01:20;97857.75;;;11.87;100.00
18678;BME280;9469;51.114;13.914;2023-10-31T21:06:26;97856.22;;;11.86;100.00
18678;BME280;9469;51.114;13.914;2023-10-31T21:11:37;97866.22;;;11.89;100.00
18678;BME280;9469;51.114;13.914;2023-10-31T21:16:42;97862.78;;;11.89;100.00
18678;BME280;9469;51.114;13.914;2023-10-31T21:21:47;97866.09;;;11.86;100.00
18678;BME280;9469;51.114;13.914;2023-10-31T21:26:55;97873.09;;;11.90;100.00
18678;BME280;9469;51.114;13.914;2023-10-31T21:32:02;97873.00;;;11.87;100.00
18678;BME280;9469;51.114;13.914;2023-10-31T21:37:08;97877.97;;;11.88;100.00
18678;BME280;9469;51.114;13.914;2023-10-31T21:42:16;97885.69;;;12.02;100.00
18678;BME280;9469;51.114;13.914;2023-10-31T21:47:22;97893.00;;;11.93;100.00
18678;BME280;9469;51.114;13.914;2023-10-31T21:52:27;97893.56;;;11.98;100.00
18678;BME280;9469;51.114;13.914;2023-10-31T21:57:35;97909.09;;;11.96;100.00
18678;BME280;9469;51.114;13.914;2023-10-31T22:02:40;97912.25;;;11.78;100.00
18678;BME280;9469;51.114;13.914;2023-10-31T22:07:46;97912.69;;;12.00;100.00
18678;BME280;9469;51.114;13.914;2023-10-31T22:12:54;97911.53;;;11.89;100.00
18678;BME280;9469;51.114;13.914;2023-10-31T22:17:59;97915.72;;;11.90;100.00
18678;BME280;9469;51.114;13.914;2023-10-31T22:23:04;97918.81;;;11.80;100.00
18678;BME280;9469;51.114;13.914;2023-10-31T22:28:13;97927.19;;;11.91;100.00
18678;BME280;9469;51.114;13.914;2023-10-31T22:33:19;97924.59;;;11.82;100.00
18678;BME280;9469;51.114;13.914;2023-10-31T22:38:24;97935.63;;;11.72;100.00
18678;BME280;9469;51.114;13.914;2023-10-31T22:43:32;97945.78;;;11.79;100.00
18678;BME280;9469;51.114;13.914;2023-10-31T22:48:37;97944.91;;;11.66;100.00
18678;BME280;9469;51.114;13.914;2023-10-31T22:53:44;97946.00;;;11.65;100.00
18678;BME280;9469;51.114;13.914;2023-10-31T22:58:51;97945.50;;;11.51;100.00
18678;BME280;9469;51.114;13.914;2023-10-31T23:03:58;97949.25;;;11.50;100.00
18678;BME280;9469;51.114;13.914;2023-10-31T23:09:05;97956.38;;;11.37;100.00
18678;BME280;9469;51.114;13.914;2023-10-31T23:14:20;97961.56;;;11.34;100.00
18678;BME280;9469;51.114;13.914;2023-10-31T23:19:25;97968.41;;;11.43;100.00
18678;BME280;9469;51.114;13.914;2023-10-31T23:24:31;97969.72;;;11.29;100.00
18678;BME280;9469;51.114;13.914;2023-10-31T23:29:39;97964.09;;;11.30;100.00
18678;BME280;9469;51.114;13.914;2023-10-31T23:34:46;97970.59;;;11.41;100.00
18678;BME280;9469;51.114;13.914;2023-10-31T23:39:51;97971.44;;;11.33;100.00
18678;BME280;9469;51.114;13.914;2023-10-31T23:44:59;97972.94;;;11.43;100.00
18678;BME280;9469;51.114;13.914;2023-10-31T23:50:08;97974.41;;;11.32;100.00
18678;BME280;9469;51.114;13.914;2023-10-31T23:55:19;97975.16;;;11.41;100.00
